createdAt,value
2022-11-12T00:00:40.823Z,8.10
2022-11-12T00:03:07.331Z,7.53
2022-11-12T00:05:33.799Z,7.72
2022-11-12T00:08:00.875Z,8.18
2022-11-12T00:10:27.328Z,7.88
2022-11-12T00:12:54.464Z,7.85
2022-11-12T00:15:20.927Z,8.07
2022-11-12T00:17:47.310Z,7.65
2022-11-12T00:20:13.721Z,8.25
2022-11-12T00:22:40.222Z,8.45
2022-11-12T00:25:06.927Z,8.63
2022-11-12T00:27:33.427Z,8.18
2022-11-12T00:29:59.870Z,7.28
2022-11-12T00:32:26.409Z,8.50
2022-11-12T00:34:52.797Z,8.07
2022-11-12T00:37:20.627Z,8.15
2022-11-12T00:39:47.057Z,7.93
2022-11-12T00:42:13.450Z,8.27
2022-11-12T00:44:39.867Z,8.05
2022-11-12T00:47:06.253Z,7.82
2022-11-12T00:49:32.683Z,7.65
2022-11-12T00:51:59.055Z,8.15
2022-11-12T00:54:25.492Z,7.93
2022-11-12T00:56:51.977Z,8.15
2022-11-12T00:59:18.493Z,7.90
2022-11-12T01:01:44.996Z,7.93
2022-11-12T01:04:11.703Z,7.82
2022-11-12T01:06:41.748Z,8.18
2022-11-12T01:09:09.289Z,8.15
2022-11-12T01:11:36.144Z,7.53
2022-11-12T01:14:04.305Z,7.70
2022-11-12T01:16:32.265Z,7.80
2022-11-12T01:18:59.872Z,7.50
2022-11-12T01:21:28.070Z,7.80
2022-11-12T01:23:54.496Z,7.93
2022-11-12T01:26:22.031Z,7.30
2022-11-12T01:28:48.972Z,7.22
2022-11-12T01:31:19.838Z,7.50
2022-11-12T01:33:47.868Z,6.78
2022-11-12T01:36:15.638Z,7.05
2022-11-12T01:38:42.752Z,6.82
2022-11-12T01:41:11.344Z,6.78
2022-11-12T01:43:38.189Z,6.80
2022-11-12T01:46:13.462Z,6.72
2022-11-12T01:48:44.581Z,7.07
2022-11-12T01:51:11.647Z,6.85
2022-11-12T01:53:40.649Z,6.40
2022-11-12T01:56:07.344Z,6.78
2022-11-12T01:58:35.182Z,6.50
2022-11-12T02:01:02.261Z,7.47
2022-11-12T02:03:28.771Z,6.80
2022-11-12T02:05:57.370Z,6.93
2022-11-12T02:08:24.529Z,6.72
2022-11-12T02:10:51.390Z,6.68
2022-11-12T02:13:36.700Z,6.90
2022-11-12T02:16:04.069Z,6.13
2022-11-12T02:18:30.508Z,6.45
2022-11-12T02:20:58.036Z,6.28
2022-11-12T02:23:24.445Z,6.10
2022-11-12T02:25:50.817Z,6.45
2022-11-12T02:28:17.434Z,6.00
2022-11-12T02:30:45.436Z,5.97
2022-11-12T02:33:11.871Z,5.88
2022-11-12T02:35:38.480Z,5.70
2022-11-12T02:38:05.880Z,6.32
2022-11-12T02:40:32.292Z,5.72
2022-11-12T02:42:59.209Z,5.63
2022-11-12T02:45:26.300Z,5.82
2022-11-12T02:47:52.874Z,5.85
2022-11-12T02:50:19.738Z,5.60
2022-11-12T02:52:46.127Z,5.75
2022-11-12T02:55:12.597Z,5.72
2022-11-12T02:57:39.537Z,5.68
2022-11-12T03:00:06.957Z,5.53
2022-11-12T03:02:33.370Z,5.60
2022-11-12T03:04:59.814Z,5.20
2022-11-12T03:07:26.223Z,5.38
2022-11-12T03:09:52.622Z,5.32
2022-11-12T03:12:19.036Z,4.85
2022-11-12T03:14:45.435Z,4.57
2022-11-12T03:17:11.834Z,5.28
2022-11-12T03:19:38.285Z,4.60
2022-11-12T03:22:04.661Z,5.10
2022-11-12T03:24:31.073Z,4.65
2022-11-12T03:26:57.577Z,5.07
2022-11-12T03:29:24.012Z,4.47
2022-11-12T03:31:50.374Z,4.80
2022-11-12T03:34:16.768Z,4.47
2022-11-12T03:36:43.222Z,4.38
2022-11-12T03:39:09.841Z,4.03
2022-11-12T03:41:36.256Z,4.15
2022-11-12T03:44:02.662Z,4.00
2022-11-12T03:46:29.073Z,4.13
2022-11-12T03:48:55.484Z,3.88
2022-11-12T03:51:22.633Z,3.92
2022-11-12T03:53:49.051Z,4.00
2022-11-12T03:56:15.504Z,3.50
2022-11-12T03:58:41.915Z,3.35
2022-11-12T04:01:08.400Z,3.78
2022-11-12T04:03:34.839Z,3.45
2022-11-12T04:06:19.872Z,3.92
2022-11-12T04:08:46.443Z,3.30
2022-11-12T04:11:14.024Z,3.58
2022-11-12T04:13:42.069Z,3.55
2022-11-12T04:16:37.889Z,3.20
2022-11-12T04:19:23.674Z,3.42
2022-11-12T04:21:51.519Z,3.63
2022-11-12T04:24:37.702Z,3.10
2022-11-12T04:27:04.300Z,3.25
2022-11-12T04:29:49.367Z,3.42
2022-11-12T04:32:16.066Z,3.03
2022-11-12T04:34:42.674Z,3.35
2022-11-12T04:37:09.164Z,3.15
2022-11-12T04:39:35.686Z,3.55
2022-11-12T04:42:20.654Z,3.13
2022-11-12T04:45:05.448Z,2.72
2022-11-12T04:47:33.481Z,3.05
2022-11-12T04:50:00.339Z,2.97
2022-11-12T04:52:27.601Z,3.15
2022-11-12T04:54:54.069Z,2.90
2022-11-12T04:57:20.704Z,2.97
2022-11-12T04:59:47.747Z,2.85
2022-11-12T05:02:14.876Z,3.10
2022-11-12T05:04:41.263Z,2.50
2022-11-12T05:07:08.016Z,2.97
2022-11-12T05:09:34.568Z,2.90
2022-11-12T05:12:01.024Z,3.00
2022-11-12T05:14:27.447Z,3.35
2022-11-12T05:16:53.851Z,2.60
2022-11-12T05:19:20.260Z,3.22
2022-11-12T05:22:05.565Z,2.65
2022-11-12T05:24:42.854Z,3.00
2022-11-12T05:27:10.813Z,3.13
2022-11-12T05:29:37.563Z,2.90
2022-11-12T05:32:04.451Z,2.83
2022-11-12T05:34:30.956Z,2.72
2022-11-12T05:36:57.491Z,2.83
2022-11-12T05:39:24.170Z,3.00
2022-11-12T05:42:11.875Z,2.83
2022-11-12T05:44:37.099Z,2.97
2022-11-12T05:47:03.704Z,2.67
2022-11-12T05:49:30.147Z,3.28
2022-11-12T05:51:56.602Z,3.25
2022-11-12T05:54:24.966Z,3.30
2022-11-12T05:56:51.866Z,3.00
2022-11-12T05:59:18.272Z,3.08
2022-11-12T06:01:44.770Z,3.22
2022-11-12T06:04:12.345Z,3.28
2022-11-12T06:06:39.227Z,3.30
2022-11-12T06:09:05.887Z,3.60
2022-11-12T06:11:32.620Z,3.42
2022-11-12T06:13:59.193Z,3.70
2022-11-12T06:16:25.641Z,3.55
2022-11-12T06:18:52.082Z,3.63
2022-11-12T06:21:24.608Z,3.50
2022-11-12T06:23:52.586Z,3.45
2022-11-12T06:26:19.827Z,3.58
2022-11-12T06:28:46.943Z,3.85
2022-11-12T06:31:13.544Z,3.72
2022-11-12T06:33:39.977Z,3.72
2022-11-12T06:36:06.865Z,3.55
2022-11-12T06:38:34.367Z,3.80
2022-11-12T06:41:00.836Z,3.33
2022-11-12T06:43:28.140Z,3.67
2022-11-12T06:45:54.579Z,3.88
2022-11-12T06:48:21.006Z,3.80
2022-11-12T06:50:47.456Z,3.53
2022-11-12T06:53:13.898Z,3.33
2022-11-12T06:55:40.324Z,3.50
2022-11-12T06:58:06.929Z,3.97
2022-11-12T07:00:33.330Z,3.53
2022-11-12T07:02:59.740Z,3.25
2022-11-12T07:05:26.170Z,3.47
2022-11-12T07:07:52.586Z,3.67
2022-11-12T07:10:18.973Z,3.40
2022-11-12T07:12:50.442Z,3.28
2022-11-12T07:15:19.541Z,3.88
2022-11-12T07:17:46.694Z,3.50
2022-11-12T07:20:13.371Z,3.20
2022-11-12T07:22:39.978Z,3.10
2022-11-12T07:25:06.675Z,3.30
2022-11-12T07:27:33.061Z,3.28
2022-11-12T07:29:59.454Z,3.22
2022-11-12T07:32:25.892Z,3.45
2022-11-12T07:34:52.419Z,3.38
2022-11-12T07:37:18.856Z,3.28
2022-11-12T07:39:45.272Z,3.33
2022-11-12T07:42:11.684Z,3.30
2022-11-12T07:44:38.125Z,3.00
2022-11-12T07:47:04.582Z,3.90
2022-11-12T07:49:30.962Z,3.15
2022-11-12T07:51:57.397Z,3.15
2022-11-12T07:54:23.786Z,3.30
2022-11-12T07:56:50.179Z,3.08
2022-11-12T07:59:16.689Z,3.10
2022-11-12T08:01:43.207Z,3.00
2022-11-12T08:04:10.370Z,3.33
2022-11-12T08:06:37.065Z,2.60
2022-11-12T08:09:04.839Z,3.30
2022-11-12T08:11:31.748Z,3.30
2022-11-12T08:13:58.212Z,3.00
2022-11-12T08:16:24.925Z,3.20
2022-11-12T08:18:51.310Z,3.10
2022-11-12T08:21:18.453Z,3.08
2022-11-12T08:23:45.097Z,3.20
2022-11-12T08:26:12.546Z,3.00
2022-11-12T08:28:38.992Z,3.17
2022-11-12T08:31:06.916Z,2.80
2022-11-12T08:33:33.558Z,3.28
2022-11-12T08:36:02.921Z,3.00
2022-11-12T08:38:29.711Z,2.80
2022-11-12T08:40:59.690Z,2.90
2022-11-12T08:43:26.111Z,2.70
2022-11-12T08:45:52.511Z,3.13
2022-11-12T08:48:19.053Z,2.95
2022-11-12T08:50:45.492Z,2.80
2022-11-12T08:53:13.051Z,2.88
2022-11-12T08:55:39.650Z,2.80
2022-11-12T08:58:06.507Z,3.00
2022-11-12T09:00:34.489Z,2.90
2022-11-12T09:03:01.555Z,2.85
2022-11-12T09:05:28.551Z,2.63
2022-11-12T09:08:02.053Z,2.70
2022-11-12T09:10:29.145Z,2.55
2022-11-12T09:12:55.622Z,2.60
2022-11-12T09:15:38.856Z,2.90
2022-11-12T09:18:07.330Z,2.60
2022-11-12T09:20:33.786Z,2.60
2022-11-12T09:23:14.285Z,2.35
2022-11-12T09:25:40.981Z,2.60
2022-11-12T09:28:11.712Z,2.75
2022-11-12T09:30:41.493Z,2.15
2022-11-12T09:33:08.070Z,2.55
2022-11-12T09:35:34.496Z,2.30
2022-11-12T09:38:00.925Z,2.42
2022-11-12T09:40:36.730Z,2.33
2022-11-12T09:43:09.772Z,1.88
2022-11-12T09:45:36.954Z,2.63
2022-11-12T09:48:06.588Z,2.00
2022-11-12T09:50:36.329Z,1.95
2022-11-12T09:53:07.681Z,2.10
2022-11-12T09:55:36.280Z,2.15
2022-11-12T09:58:02.699Z,2.25
2022-11-12T10:00:29.826Z,2.38
2022-11-12T10:03:12.958Z,2.20
2022-11-12T10:05:48.533Z,2.20
2022-11-12T10:08:20.682Z,2.20
2022-11-12T10:10:55.116Z,2.05
2022-11-12T10:13:38.577Z,1.90
2022-11-12T10:16:31.731Z,2.00
2022-11-12T10:19:04.391Z,2.20
2022-11-12T10:21:59.960Z,1.90
2022-11-12T10:24:27.918Z,1.67
2022-11-12T10:26:57.170Z,1.60
2022-11-12T10:29:42.261Z,1.50
2022-11-12T10:32:13.915Z,1.88
2022-11-12T10:34:40.311Z,1.77
2022-11-12T10:37:10.660Z,1.67
2022-11-12T10:39:44.244Z,1.80
2022-11-12T10:42:11.948Z,1.65
2022-11-12T10:44:44.949Z,1.60
2022-11-12T10:47:20.616Z,1.60
2022-11-12T10:50:02.581Z,1.90
2022-11-12T10:52:29.033Z,1.60
2022-11-12T10:55:06.623Z,1.33
2022-11-12T10:57:33.030Z,1.50
2022-11-12T11:00:17.037Z,1.92
2022-11-12T11:02:51.377Z,1.73
2022-11-12T11:05:37.378Z,1.63
2022-11-12T11:08:04.559Z,1.48
2022-11-12T11:10:35.597Z,1.52
2022-11-12T11:13:20.128Z,1.60
2022-11-12T11:16:00.697Z,1.50
2022-11-12T11:18:28.491Z,1.60
2022-11-12T11:21:08.169Z,1.35
2022-11-12T11:23:42.634Z,1.42
2022-11-12T11:26:26.046Z,1.67
2022-11-12T11:29:00.325Z,1.80
2022-11-12T11:31:35.784Z,1.50
2022-11-12T11:34:17.590Z,1.50
2022-11-12T11:36:47.632Z,1.60
2022-11-12T11:39:27.813Z,1.50
2022-11-12T11:41:56.991Z,1.40
2022-11-12T11:44:23.684Z,1.45
2022-11-12T11:47:44.009Z,1.60
2022-11-12T11:50:19.315Z,1.33
2022-11-12T11:52:48.642Z,1.45
2022-11-12T11:55:22.314Z,1.70
2022-11-12T11:57:54.722Z,1.50
2022-11-12T12:00:22.992Z,1.30
2022-11-12T12:02:59.378Z,1.52
2022-11-12T12:05:38.172Z,1.27
2022-11-12T12:08:12.839Z,1.42
2022-11-12T12:11:06.296Z,1.45
2022-11-12T12:13:45.847Z,1.08
2022-11-12T12:16:15.384Z,1.23
2022-11-12T12:18:50.874Z,1.27
2022-11-12T12:21:18.427Z,1.63
2022-11-12T12:23:52.666Z,1.20
2022-11-12T12:26:22.060Z,1.40
2022-11-12T12:29:05.331Z,1.50
2022-11-12T12:31:36.437Z,1.67
2022-11-12T12:34:05.219Z,1.30
2022-11-12T12:36:34.357Z,1.25
2022-11-12T12:39:03.452Z,1.50
2022-11-12T12:41:59.358Z,1.38
2022-11-12T12:44:47.137Z,1.30
2022-11-12T12:47:14.721Z,1.30
2022-11-12T12:49:41.773Z,1.00
2022-11-12T12:52:11.503Z,1.27
2022-11-12T12:54:37.881Z,1.40
2022-11-12T12:57:04.375Z,1.17
2022-11-12T12:59:31.011Z,1.30
2022-11-12T13:02:01.756Z,1.30
2022-11-12T13:04:46.817Z,1.30
2022-11-12T13:07:13.293Z,1.33
2022-11-12T13:09:39.792Z,1.27
2022-11-12T13:12:08.890Z,1.20
2022-11-12T13:14:35.236Z,1.30
2022-11-12T13:17:09.353Z,1.40
2022-11-12T13:19:37.950Z,1.50
2022-11-12T13:22:19.455Z,1.20
2022-11-12T13:25:04.693Z,1.30
2022-11-12T13:27:40.474Z,1.17
2022-11-12T13:30:12.944Z,1.50
2022-11-12T13:32:48.647Z,1.45
2022-11-12T13:35:35.015Z,1.20
2022-11-12T13:38:04.509Z,1.25
2022-11-12T13:40:45.979Z,1.40
2022-11-12T13:43:15.468Z,1.30
2022-11-12T13:45:50.236Z,1.50
2022-11-12T13:48:28.705Z,1.45
2022-11-12T13:50:57.055Z,1.25
2022-11-12T13:53:25.616Z,1.55
2022-11-12T13:55:52.744Z,1.23
2022-11-12T13:58:20.234Z,1.38
2022-11-12T14:00:54.146Z,1.17
2022-11-12T14:03:21.033Z,1.50
2022-11-12T14:05:48.722Z,1.40
2022-11-12T14:08:24.497Z,1.23
2022-11-12T14:11:03.017Z,1.70
2022-11-12T14:13:35.585Z,1.40
2022-11-12T14:16:24.487Z,1.90
2022-11-12T14:18:53.938Z,1.85
2022-11-12T14:21:20.381Z,1.67
2022-11-12T14:23:47.881Z,1.80
2022-11-12T14:26:14.865Z,1.70
2022-11-12T14:28:41.342Z,1.77
2022-11-12T14:31:12.895Z,1.90
2022-11-12T14:33:39.378Z,2.10
2022-11-12T14:36:07.165Z,2.10
2022-11-12T14:38:37.386Z,2.10
2022-11-12T14:41:07.652Z,2.40
2022-11-12T14:43:45.276Z,2.08
2022-11-12T14:46:38.047Z,2.30
2022-11-12T14:49:05.595Z,2.30
2022-11-12T14:51:34.073Z,2.15
2022-11-12T14:54:02.440Z,2.30
2022-11-12T14:56:35.835Z,2.10
2022-11-12T14:59:03.935Z,2.03
2022-11-12T15:04:24.846Z,1.85
2022-11-12T15:06:55.069Z,2.30
2022-11-12T15:09:37.896Z,2.38
2022-11-12T15:12:05.715Z,2.20
2022-11-12T15:14:33.519Z,2.30
2022-11-12T15:17:00.750Z,2.03
2022-11-12T15:19:27.883Z,2.00
2022-11-12T15:22:01.776Z,2.28
2022-11-12T15:24:34.160Z,1.95
2022-11-12T15:29:28.492Z,2.13
2022-11-12T15:32:18.375Z,2.20
2022-11-12T15:34:46.212Z,2.03
2022-11-12T15:37:18.789Z,1.80
2022-11-12T15:39:48.802Z,2.40
2022-11-12T15:42:36.776Z,2.00
2022-11-12T15:45:04.450Z,2.00
2022-11-12T15:47:30.881Z,2.15
2022-11-12T15:49:59.170Z,2.08
2022-11-12T15:52:25.743Z,2.30
2022-11-12T15:54:52.231Z,2.50
2022-11-12T15:57:23.426Z,2.10
2022-11-12T15:59:54.445Z,2.40
2022-11-12T16:02:20.959Z,2.15
2022-11-12T16:04:47.495Z,1.75
2022-11-12T16:07:13.997Z,2.17
2022-11-12T16:09:40.507Z,2.20
2022-11-12T16:12:10.472Z,2.05
2022-11-12T16:14:36.909Z,2.55
2022-11-12T16:17:03.372Z,2.30
2022-11-12T16:19:34.107Z,2.58
2022-11-12T16:22:00.992Z,2.33
2022-11-12T16:24:27.747Z,2.40
2022-11-12T16:26:54.184Z,2.60
2022-11-12T16:29:20.597Z,2.72
2022-11-12T16:31:47.015Z,3.10
2022-11-12T16:34:13.438Z,2.70
2022-11-12T16:36:40.044Z,3.00
2022-11-12T16:39:06.768Z,2.85
2022-11-12T16:41:33.167Z,2.90
2022-11-12T16:43:59.551Z,3.35
2022-11-12T16:46:28.962Z,3.35
2022-11-12T16:48:55.467Z,3.30
2022-11-12T16:51:22.261Z,3.05
2022-11-12T16:53:48.799Z,2.80
2022-11-12T16:56:19.158Z,3.15
2022-11-12T16:58:45.909Z,3.03
2022-11-12T17:01:23.784Z,3.00
2022-11-12T17:03:50.790Z,3.00
2022-11-12T17:06:17.217Z,2.85
2022-11-12T17:08:45.868Z,2.85
2022-11-12T17:11:12.317Z,3.00
2022-11-12T17:13:38.874Z,2.55
2022-11-12T17:16:06.460Z,2.65
2022-11-12T17:18:32.950Z,2.90
2022-11-12T17:21:16.003Z,2.97
2022-11-12T17:23:42.604Z,2.72
2022-11-12T17:26:13.181Z,2.90
2022-11-12T17:28:39.788Z,2.65
2022-11-12T17:31:16.787Z,2.45
2022-11-12T17:33:47.630Z,2.67
2022-11-12T17:36:24.647Z,2.78
2022-11-12T17:38:54.956Z,2.60
2022-11-12T17:41:21.414Z,2.70
2022-11-12T17:43:47.881Z,2.65
2022-11-12T17:46:14.899Z,2.40
2022-11-12T17:48:41.378Z,2.97
2022-11-12T17:51:10.081Z,2.40
2022-11-12T17:53:36.688Z,2.85
2022-11-12T17:56:03.718Z,2.97
2022-11-12T17:58:30.485Z,2.72
2022-11-12T18:01:03.910Z,3.03
2022-11-12T18:03:30.411Z,2.97
2022-11-12T18:05:58.126Z,3.00
2022-11-12T18:08:24.680Z,2.85
2022-11-12T18:10:51.723Z,2.90
2022-11-12T18:13:18.280Z,3.00
2022-11-12T18:15:44.703Z,3.03
2022-11-12T18:18:11.201Z,3.13
2022-11-12T18:20:38.394Z,2.70
2022-11-12T18:23:04.970Z,2.88
2022-11-12T18:25:31.351Z,2.72
2022-11-12T18:27:57.730Z,3.00
2022-11-12T18:30:24.150Z,2.85
2022-11-12T18:32:51.417Z,2.63
2022-11-12T18:35:18.027Z,2.92
2022-11-12T18:37:44.494Z,2.33
2022-11-12T18:40:11.058Z,2.67
2022-11-12T18:42:37.528Z,3.17
2022-11-12T18:45:04.157Z,2.75
2022-11-12T18:47:30.765Z,2.67
2022-11-12T18:49:57.252Z,2.58
2022-11-12T18:52:23.655Z,2.83
2022-11-12T18:54:50.172Z,2.47
2022-11-12T18:57:16.627Z,2.60
2022-11-12T18:59:43.147Z,2.38
2022-11-12T19:02:12.423Z,2.13
2022-11-12T19:04:43.980Z,2.67
2022-11-12T19:07:11.796Z,2.53
2022-11-12T19:09:38.213Z,2.70
2022-11-12T19:12:04.818Z,2.30
2022-11-12T19:14:31.243Z,2.45
2022-11-12T19:16:58.038Z,2.40
2022-11-12T19:19:24.449Z,2.20
2022-11-12T19:21:51.068Z,1.90
2022-11-12T19:24:17.555Z,2.40
2022-11-12T19:26:44.025Z,1.92
2022-11-12T19:29:10.449Z,2.25
2022-11-12T19:31:36.932Z,2.03
2022-11-12T19:34:03.490Z,2.00
2022-11-12T19:36:29.893Z,2.25
2022-11-12T19:38:57.582Z,2.30
2022-11-12T19:41:24.639Z,2.03
2022-11-12T19:43:51.688Z,2.28
2022-11-12T19:46:18.214Z,1.98
2022-11-12T19:48:45.054Z,1.98
2022-11-12T19:51:11.982Z,2.10
2022-11-12T19:53:44.536Z,2.15
2022-11-12T19:56:13.480Z,1.75
2022-11-12T19:58:40.201Z,2.10
2022-11-12T20:01:10.493Z,1.98
2022-11-12T20:03:37.602Z,1.90
2022-11-12T20:06:06.956Z,1.73
2022-11-12T20:08:33.484Z,1.90
2022-11-12T20:11:00.417Z,1.75
2022-11-12T20:13:26.792Z,1.70
2022-11-12T20:15:53.335Z,2.10
2022-11-12T20:18:19.823Z,1.90
2022-11-12T20:20:54.336Z,1.92
2022-11-12T20:23:23.450Z,1.80
2022-11-12T20:25:50.450Z,1.95
2022-11-12T20:28:16.826Z,1.90
2022-11-12T20:30:43.310Z,1.75
2022-11-12T20:33:09.745Z,1.92
2022-11-12T20:35:36.785Z,1.92
2022-11-12T20:38:04.098Z,1.92
2022-11-12T20:40:31.190Z,1.83
2022-11-12T20:42:57.790Z,1.88
2022-11-12T20:45:24.826Z,1.80
2022-11-12T20:47:51.229Z,1.73
2022-11-12T20:50:17.758Z,1.80
2022-11-12T20:52:44.134Z,1.95
2022-11-12T20:55:10.713Z,1.77
2022-11-12T20:57:37.279Z,1.60
2022-11-12T21:00:04.277Z,1.70
2022-11-12T21:02:30.681Z,1.73
2022-11-12T21:04:57.115Z,1.63
2022-11-12T21:07:23.542Z,1.83
2022-11-12T21:09:50.124Z,1.20
2022-11-12T21:12:16.543Z,1.80
2022-11-12T21:14:49.103Z,1.75
2022-11-12T21:17:16.786Z,1.50
2022-11-12T21:19:43.235Z,1.23
2022-11-12T21:22:09.813Z,1.70
2022-11-12T21:24:36.208Z,1.60
2022-11-12T21:27:02.659Z,1.67
2022-11-12T21:29:29.066Z,1.40
2022-11-12T21:31:55.527Z,1.42
2022-11-12T21:34:22.051Z,1.60
2022-11-12T21:36:48.573Z,1.42
2022-11-12T21:39:15.060Z,1.60
2022-11-12T21:41:41.677Z,1.27
2022-11-12T21:44:08.109Z,1.38
2022-11-12T21:46:37.517Z,1.45
2022-11-12T21:49:04.321Z,1.33
2022-11-12T21:51:31.895Z,1.50
2022-11-12T21:53:59.627Z,1.45
2022-11-12T21:56:26.553Z,1.38
2022-11-12T21:58:54.067Z,1.60
2022-11-12T22:01:21.879Z,1.60
2022-11-12T22:03:49.017Z,1.50
2022-11-12T22:06:15.921Z,1.38
2022-11-12T22:08:42.374Z,1.50
2022-11-12T22:11:12.941Z,1.50
2022-11-12T22:13:39.750Z,1.33
2022-11-12T22:16:07.412Z,1.45
2022-11-12T22:18:34.357Z,1.48
2022-11-12T22:21:02.256Z,1.42
2022-11-12T22:23:28.671Z,1.23
2022-11-12T22:25:58.222Z,1.60
2022-11-12T22:28:25.109Z,1.40
2022-11-12T22:30:52.503Z,1.30
2022-11-12T22:33:19.139Z,1.40
2022-11-12T22:35:45.575Z,1.30
2022-11-12T22:38:12.223Z,1.70
2022-11-12T22:40:38.762Z,1.58
2022-11-12T22:43:05.297Z,1.40
2022-11-12T22:45:31.705Z,1.70
2022-11-12T22:48:01.105Z,1.40
2022-11-12T22:50:27.532Z,1.58
2022-11-12T22:52:55.188Z,1.20
2022-11-12T22:55:21.752Z,1.60
2022-11-12T22:57:48.172Z,1.67
2022-11-12T23:00:14.930Z,1.58
2022-11-12T23:02:46.370Z,1.55
2022-11-12T23:05:14.347Z,1.35
2022-11-12T23:07:40.728Z,1.25
2022-11-12T23:10:07.430Z,1.60
2022-11-12T23:12:33.853Z,1.50
2022-11-12T23:15:00.296Z,1.30
2022-11-12T23:17:26.711Z,1.70
2022-11-12T23:19:53.119Z,1.70
2022-11-12T23:22:19.599Z,1.70
2022-11-12T23:24:45.988Z,1.80
2022-11-12T23:27:12.378Z,1.73
2022-11-12T23:29:38.793Z,1.77
2022-11-12T23:32:05.191Z,1.80
2022-11-12T23:34:31.598Z,1.60
2022-11-12T23:36:58.025Z,1.55
2022-11-12T23:39:24.405Z,1.50
2022-11-12T23:41:50.828Z,1.70
2022-11-12T23:44:17.232Z,1.50
2022-11-12T23:46:43.607Z,1.60
2022-11-12T23:49:10.050Z,1.70
2022-11-12T23:51:36.454Z,1.60
2022-11-12T23:54:02.916Z,1.45
2022-11-12T23:56:29.495Z,1.83
2022-11-12T23:58:56.011Z,1.70
